New Waverly, Indiana
Current Conditions -  °F | °C
As of 1:03 AM on Monday 26 Jan 2015 (Local Time) from KGUS Reporting Station
Overcast Overcast  
Wind Chill: 11°   Ceiling: 3500
Heat Index: 23°   Visibility: 10mi
Dew Point: 16°   Wind: 13mph
Humidity: 74%   Direction: 40°NE
Pressure: 29.89"   Gusts: NA
Location:  40.76°N, 86.19°W
Report Text: KGUS 260603Z AUTO 04011KT 10SM FEW018 SCT028 OVC035 M05/M09 A2989 RMK AO2
Loading
Personal Weather Stations






























Interactive Weather Map New forecast layout! Learn more

10-Day Weather Forecast

Advertisements
Track Severe Weather on mobile